createdAt,value
2019-02-14T00:00:02.163Z,8.37
2019-02-14T00:01:06.305Z,8.36
2019-02-14T00:02:10.500Z,8.36
2019-02-14T00:03:14.626Z,8.35
2019-02-14T00:04:18.854Z,8.35
2019-02-14T00:05:23.147Z,8.35
2019-02-14T00:06:27.314Z,8.34
2019-02-14T00:07:31.534Z,8.35
2019-02-14T00:08:35.755Z,8.35
2019-02-14T00:09:39.906Z,8.34
2019-02-14T00:10:44.116Z,8.34
2019-02-14T00:11:48.344Z,8.35
2019-02-14T00:12:52.543Z,8.35
2019-02-14T00:13:56.780Z,8.35
2019-02-14T00:15:00.978Z,8.36
2019-02-14T00:16:05.259Z,8.37
2019-02-14T00:17:09.480Z,8.38
2019-02-14T00:18:13.714Z,8.39
2019-02-14T00:19:17.778Z,8.39
2019-02-14T00:20:22.085Z,8.40
2019-02-14T00:21:26.269Z,8.39
2019-02-14T00:22:30.463Z,8.39
2019-02-14T00:23:34.684Z,8.38
2019-02-14T00:24:39.007Z,8.37
2019-02-14T00:25:43.190Z,8.35
2019-02-14T00:26:47.465Z,8.33
2019-02-14T00:27:51.696Z,8.32
2019-02-14T00:28:55.938Z,8.31
2019-02-14T00:30:00.067Z,8.29
2019-02-14T00:31:04.259Z,8.28
2019-02-14T00:32:08.454Z,8.28
2019-02-14T00:33:12.691Z,8.27
2019-02-14T00:34:16.856Z,8.26
2019-02-14T00:35:25.025Z,8.27
2019-02-14T00:36:25.319Z,8.27
2019-02-14T00:37:29.569Z,8.26
2019-02-14T00:38:33.784Z,8.25
2019-02-14T00:39:37.983Z,8.24
2019-02-14T00:40:42.078Z,8.23
2019-02-14T00:41:46.365Z,8.23
2019-02-14T00:42:50.548Z,8.23
2019-02-14T00:43:54.761Z,8.24
2019-02-14T00:44:58.877Z,8.24
2019-02-14T00:46:03.156Z,8.24
2019-02-14T00:47:07.438Z,8.23
2019-02-14T00:48:11.602Z,8.23
2019-02-14T00:49:15.863Z,8.22
2019-02-14T00:50:20.025Z,8.22
2019-02-14T00:51:24.291Z,8.22
2019-02-14T00:52:28.526Z,8.22
2019-02-14T00:53:32.745Z,8.22
2019-02-14T00:54:36.930Z,8.22
2019-02-14T00:55:41.127Z,8.23
2019-02-14T00:56:45.289Z,8.24
2019-02-14T00:57:49.421Z,8.24
2019-02-14T00:58:53.732Z,8.23
2019-02-14T00:59:57.907Z,8.22
2019-02-14T01:01:02.094Z,8.22
2019-02-14T01:02:06.288Z,8.22
2019-02-14T01:03:10.521Z,8.23
2019-02-14T01:04:14.727Z,8.24
2019-02-14T01:05:18.964Z,8.23
2019-02-14T01:06:23.164Z,8.23
2019-02-14T01:07:27.349Z,8.22
2019-02-14T01:08:31.526Z,8.22
2019-02-14T01:09:35.683Z,8.20
2019-02-14T01:10:39.880Z,8.20
2019-02-14T01:11:44.204Z,8.20
2019-02-14T01:12:48.427Z,8.21
2019-02-14T01:13:52.568Z,8.21
2019-02-14T01:14:56.784Z,8.21
2019-02-14T01:16:00.969Z,8.21
2019-02-14T01:17:05.277Z,8.21
2019-02-14T01:18:09.536Z,8.20
2019-02-14T01:19:15.418Z,8.21
2019-02-14T01:20:17.979Z,8.21
2019-02-14T01:21:22.207Z,8.20
2019-02-14T01:22:26.343Z,8.19
2019-02-14T01:23:30.554Z,8.18
2019-02-14T01:24:34.707Z,8.17
2019-02-14T01:25:39.020Z,8.17
2019-02-14T01:26:43.199Z,8.16
2019-02-14T01:27:47.391Z,8.15
2019-02-14T01:28:51.682Z,8.15
2019-02-14T01:29:55.945Z,8.15
2019-02-14T01:31:00.154Z,8.15
2019-02-14T01:32:04.412Z,8.15
2019-02-14T01:33:08.445Z,8.14
2019-02-14T01:34:12.758Z,8.13
2019-02-14T01:35:16.983Z,8.13
2019-02-14T01:36:21.256Z,8.12
2019-02-14T01:37:25.374Z,8.12
2019-02-14T01:38:29.597Z,8.12
2019-02-14T01:39:33.736Z,8.12
2019-02-14T01:40:38.041Z,8.10
2019-02-14T01:41:42.202Z,8.10
2019-02-14T01:42:46.394Z,8.10
2019-02-14T01:43:50.592Z,8.11
2019-02-14T01:44:54.831Z,8.11
2019-02-14T01:45:59.147Z,8.12
2019-02-14T01:47:03.382Z,8.12
2019-02-14T01:48:07.516Z,8.11
2019-02-14T01:49:12.483Z,8.10
2019-02-14T01:50:16.348Z,8.09
2019-02-14T01:51:20.531Z,8.10
2019-02-14T01:52:24.846Z,8.09
2019-02-14T01:53:29.079Z,8.09
2019-02-14T01:54:33.230Z,8.08
2019-02-14T01:55:37.553Z,8.07
2019-02-14T01:56:41.818Z,8.07
2019-02-14T01:57:46.074Z,8.07
2019-02-14T01:58:50.183Z,8.07
2019-02-14T01:59:54.366Z,8.07
2019-02-14T02:00:58.552Z,8.07
2019-02-14T02:02:02.805Z,8.06
2019-02-14T02:03:07.066Z,8.07
2019-02-14T02:04:11.290Z,8.07
2019-02-14T02:05:15.427Z,8.07
2019-02-14T02:06:19.624Z,8.07
2019-02-14T02:07:23.868Z,8.06
2019-02-14T02:08:28.146Z,8.07
2019-02-14T02:09:32.360Z,8.08
2019-02-14T02:10:36.511Z,8.09
2019-02-14T02:11:40.697Z,8.09
2019-02-14T02:12:44.872Z,8.09
2019-02-14T02:13:49.109Z,8.09
2019-02-14T02:14:53.283Z,8.09
2019-02-14T02:15:57.440Z,8.10
2019-02-14T02:17:01.699Z,8.09
2019-02-14T02:18:05.930Z,8.09
2019-02-14T02:19:10.188Z,8.08
2019-02-14T02:20:14.326Z,8.07
2019-02-14T02:21:18.578Z,8.07
2019-02-14T02:22:22.814Z,8.07
2019-02-14T02:23:27.079Z,8.08
2019-02-14T02:24:31.180Z,8.08
2019-02-14T02:25:35.372Z,8.08
2019-02-14T02:26:39.641Z,8.06
2019-02-14T02:27:43.793Z,8.06
2019-02-14T02:28:47.975Z,8.04
2019-02-14T02:29:52.087Z,8.04
2019-02-14T02:30:56.375Z,8.02
2019-02-14T02:32:00.459Z,8.01
2019-02-14T02:33:04.732Z,8.01
2019-02-14T02:34:08.906Z,8.00
2019-02-14T02:35:13.108Z,7.99
2019-02-14T02:36:17.323Z,7.99
2019-02-14T02:37:21.499Z,8.00
2019-02-14T02:38:25.701Z,8.00
2019-02-14T02:39:29.981Z,8.00
2019-02-14T02:40:34.281Z,8.00
2019-02-14T02:41:38.419Z,7.99
2019-02-14T02:42:42.703Z,7.98
2019-02-14T02:43:46.752Z,7.98
2019-02-14T02:44:51.090Z,7.96
2019-02-14T02:45:55.295Z,7.95
2019-02-14T02:46:59.553Z,7.95
2019-02-14T02:48:03.712Z,7.95
2019-02-14T02:49:07.966Z,7.95
2019-02-14T02:50:12.106Z,7.95
2019-02-14T02:51:16.294Z,7.96
2019-02-14T02:52:20.596Z,7.97
2019-02-14T02:53:24.778Z,7.98
2019-02-14T02:54:29.062Z,7.98
2019-02-14T02:55:33.255Z,7.98
2019-02-14T02:56:37.370Z,7.97
2019-02-14T02:57:41.698Z,7.96
2019-02-14T02:58:45.967Z,7.95
2019-02-14T02:59:50.225Z,7.94
2019-02-14T03:00:54.463Z,7.94
2019-02-14T03:01:58.698Z,7.93
2019-02-14T03:03:02.916Z,7.92
2019-02-14T03:04:07.201Z,7.92
2019-02-14T03:05:11.322Z,7.92
2019-02-14T03:06:15.601Z,7.91
2019-02-14T03:07:19.729Z,7.90
2019-02-14T03:08:24.006Z,7.90
2019-02-14T03:09:28.286Z,7.90
2019-02-14T03:10:32.457Z,7.89
2019-02-14T03:11:36.646Z,7.89
2019-02-14T03:12:40.843Z,7.89
2019-02-14T03:13:45.131Z,7.88
2019-02-14T03:14:49.267Z,7.89
2019-02-14T03:15:53.466Z,7.90
2019-02-14T03:16:57.727Z,7.90
2019-02-14T03:18:01.946Z,7.90
2019-02-14T03:19:06.259Z,7.92
2019-02-14T03:20:10.450Z,7.91
2019-02-14T03:21:14.661Z,7.91
2019-02-14T03:22:18.768Z,7.89
2019-02-14T03:23:23.060Z,7.89
2019-02-14T03:24:27.293Z,7.88
2019-02-14T03:25:31.476Z,7.87
2019-02-14T03:26:35.649Z,7.87
2019-02-14T03:27:39.738Z,7.87
2019-02-14T03:28:44.047Z,7.87
2019-02-14T03:29:48.206Z,7.87
2019-02-14T03:30:52.467Z,7.87
2019-02-14T03:31:56.601Z,7.87
2019-02-14T03:33:00.900Z,7.87
2019-02-14T03:34:05.056Z,7.87
2019-02-14T03:35:09.327Z,7.85
2019-02-14T03:36:18.805Z,7.84
2019-02-14T03:37:17.808Z,7.83
2019-02-14T03:38:21.920Z,7.84
2019-02-14T03:39:26.205Z,7.83
2019-02-14T03:40:30.452Z,7.83
2019-02-14T03:41:34.561Z,7.83
2019-02-14T03:42:38.783Z,7.84
2019-02-14T03:43:43.017Z,7.84
2019-02-14T03:44:47.248Z,7.84
2019-02-14T03:45:51.380Z,7.84
2019-02-14T03:46:55.528Z,7.86
2019-02-14T03:47:59.843Z,7.87
2019-02-14T03:49:04.119Z,7.88
2019-02-14T03:50:08.358Z,7.89
2019-02-14T03:51:12.457Z,7.89
2019-02-14T03:52:16.762Z,7.89
2019-02-14T03:53:20.913Z,7.88
2019-02-14T03:54:25.243Z,7.88
2019-02-14T03:55:29.455Z,7.87
2019-02-14T03:56:33.615Z,7.85
2019-02-14T03:57:37.857Z,7.84
2019-02-14T03:58:42.131Z,7.85
2019-02-14T03:59:46.298Z,7.84
2019-02-14T04:00:50.543Z,7.84
2019-02-14T04:01:54.759Z,7.84
2019-02-14T04:02:58.999Z,7.85
2019-02-14T04:04:03.213Z,7.86
2019-02-14T04:05:07.484Z,7.87
2019-02-14T04:06:11.705Z,7.88
2019-02-14T04:07:15.983Z,7.90
2019-02-14T04:08:20.204Z,7.90
2019-02-14T04:09:24.313Z,7.92
2019-02-14T04:10:28.637Z,7.93
2019-02-14T04:11:32.841Z,7.93
2019-02-14T04:12:37.075Z,7.92
2019-02-14T04:13:41.275Z,7.92
2019-02-14T04:14:45.437Z,7.92
2019-02-14T04:15:49.623Z,7.93
2019-02-14T04:16:53.902Z,7.94
2019-02-14T04:17:58.178Z,7.95
2019-02-14T04:19:02.384Z,7.95
2019-02-14T04:20:06.644Z,7.96
2019-02-14T04:21:10.752Z,7.96
2019-02-14T04:22:15.035Z,7.96
2019-02-14T04:23:19.279Z,7.96
2019-02-14T04:24:23.407Z,7.95
2019-02-14T04:25:27.584Z,7.94
2019-02-14T04:26:31.716Z,7.93
2019-02-14T04:27:35.963Z,7.93
2019-02-14T04:28:40.238Z,7.93
2019-02-14T04:29:44.484Z,7.93
2019-02-14T04:30:48.751Z,7.93
2019-02-14T04:31:52.786Z,7.92
2019-02-14T04:32:57.127Z,7.92
2019-02-14T04:34:01.376Z,7.92
2019-02-14T04:35:05.587Z,7.92
2019-02-14T04:36:09.881Z,7.92
2019-02-14T04:37:14.123Z,7.89
2019-02-14T04:38:18.244Z,7.87
2019-02-14T04:39:22.566Z,7.86
2019-02-14T04:40:33.412Z,7.86
2019-02-14T04:41:31.016Z,7.86
2019-02-14T04:42:35.282Z,7.85
2019-02-14T04:43:39.412Z,7.83
2019-02-14T04:44:43.726Z,7.82
2019-02-14T04:45:47.965Z,7.82
2019-02-14T04:46:52.204Z,7.83
2019-02-14T04:47:56.400Z,7.84
2019-02-14T04:49:00.609Z,7.83
2019-02-14T04:50:04.802Z,7.84
2019-02-14T04:51:09.012Z,7.83
2019-02-14T04:52:13.291Z,7.84
2019-02-14T04:53:17.422Z,7.83
2019-02-14T04:54:21.703Z,7.83
2019-02-14T04:55:25.885Z,7.82
2019-02-14T04:56:30.081Z,7.81
2019-02-14T04:57:34.273Z,7.80
2019-02-14T04:58:38.555Z,7.81
2019-02-14T04:59:42.708Z,7.80
2019-02-14T05:00:46.994Z,7.78
2019-02-14T05:01:51.120Z,7.76
2019-02-14T05:02:55.330Z,7.76
2019-02-14T05:03:59.489Z,7.76
2019-02-14T05:05:03.791Z,7.76
2019-02-14T05:06:08.032Z,7.75
2019-02-14T05:07:12.259Z,7.75
2019-02-14T05:08:16.380Z,7.75
2019-02-14T05:09:20.589Z,7.75
2019-02-14T05:10:24.769Z,7.75
2019-02-14T05:11:28.977Z,7.74
2019-02-14T05:12:33.170Z,7.73
2019-02-14T05:13:37.425Z,7.73
2019-02-14T05:14:41.580Z,7.73
2019-02-14T05:15:45.873Z,7.74
2019-02-14T05:16:49.999Z,7.73
2019-02-14T05:17:54.233Z,7.73
2019-02-14T05:18:58.472Z,7.72
2019-02-14T05:20:02.695Z,7.72
2019-02-14T05:21:06.924Z,7.72
2019-02-14T05:22:11.075Z,7.73
2019-02-14T05:23:15.347Z,7.72
2019-02-14T05:24:22.573Z,7.71
2019-02-14T05:25:25.774Z,7.69
2019-02-14T05:26:30.044Z,7.69
2019-02-14T05:27:34.165Z,7.70
2019-02-14T05:28:38.466Z,7.70
2019-02-14T05:29:42.696Z,7.70
2019-02-14T05:30:46.805Z,7.71
2019-02-14T05:31:51.130Z,7.72
2019-02-14T05:32:58.372Z,7.70
2019-02-14T05:34:01.657Z,7.71
2019-02-14T05:35:05.878Z,7.71
2019-02-14T05:36:10.050Z,7.69
2019-02-14T05:37:14.383Z,7.68
2019-02-14T05:38:18.623Z,7.68
2019-02-14T05:39:22.771Z,7.68
2019-02-14T05:40:26.927Z,7.68
2019-02-14T05:41:31.191Z,7.69
2019-02-14T05:42:35.462Z,7.71
2019-02-14T05:43:39.707Z,7.72
2019-02-14T05:44:43.946Z,7.71
2019-02-14T05:45:48.073Z,7.71
2019-02-14T05:46:52.376Z,7.71
2019-02-14T05:47:56.595Z,7.70
2019-02-14T05:49:00.726Z,7.69
2019-02-14T05:50:04.923Z,7.68
2019-02-14T05:51:09.235Z,7.68
2019-02-14T05:52:13.500Z,7.69
2019-02-14T05:53:17.611Z,7.68
2019-02-14T05:54:21.814Z,7.68
2019-02-14T05:55:26.136Z,7.68
2019-02-14T05:56:30.365Z,7.68
2019-02-14T05:57:34.597Z,7.68
2019-02-14T05:58:38.806Z,7.69
2019-02-14T05:59:43.047Z,7.69
2019-02-14T06:00:47.318Z,7.71
2019-02-14T06:01:51.535Z,7.73
2019-02-14T06:02:55.819Z,7.74
2019-02-14T06:04:00.044Z,7.75
2019-02-14T06:05:04.303Z,7.75
2019-02-14T06:06:08.535Z,7.75
2019-02-14T06:07:12.687Z,7.74
2019-02-14T06:08:16.892Z,7.73
2019-02-14T06:09:21.166Z,7.73
2019-02-14T06:10:25.327Z,7.72
2019-02-14T06:11:29.593Z,7.71
2019-02-14T06:12:33.829Z,7.70
2019-02-14T06:13:38.074Z,7.70
2019-02-14T06:14:42.175Z,7.71
2019-02-14T06:15:46.465Z,7.72
2019-02-14T06:16:50.584Z,7.74
2019-02-14T06:17:54.794Z,7.75
2019-02-14T06:18:59.085Z,7.76
2019-02-14T06:20:03.215Z,7.78
2019-02-14T06:21:07.530Z,7.79
2019-02-14T06:22:11.763Z,7.80
2019-02-14T06:23:16.007Z,7.81
2019-02-14T06:24:20.230Z,7.81
2019-02-14T06:25:24.411Z,7.82
2019-02-14T06:26:28.685Z,7.82
2019-02-14T06:27:32.862Z,7.82
2019-02-14T06:28:37.413Z,7.81
2019-02-14T06:29:41.351Z,7.80
2019-02-14T06:30:45.595Z,7.81
2019-02-14T06:31:49.746Z,7.81
2019-02-14T06:32:54.066Z,7.81
2019-02-14T06:33:58.298Z,7.82
2019-02-14T06:35:02.545Z,7.82
2019-02-14T06:36:06.771Z,7.82
2019-02-14T06:37:11.046Z,7.82
2019-02-14T06:38:15.223Z,7.80
2019-02-14T06:39:19.494Z,7.78
2019-02-14T06:40:23.670Z,7.76
2019-02-14T06:41:27.849Z,7.75
2019-02-14T06:42:32.129Z,7.74
2019-02-14T06:43:36.426Z,7.73
2019-02-14T06:44:40.538Z,7.70
2019-02-14T06:45:44.837Z,7.68
2019-02-14T06:46:48.987Z,7.66
2019-02-14T06:47:53.289Z,7.66
2019-02-14T06:48:57.499Z,7.65
2019-02-14T06:50:01.774Z,7.65
2019-02-14T06:51:06.008Z,7.65
2019-02-14T06:52:10.226Z,7.65
2019-02-14T06:53:14.467Z,7.64
2019-02-14T06:54:18.613Z,7.63
2019-02-14T06:55:22.886Z,7.61
2019-02-14T06:56:27.136Z,7.60
2019-02-14T06:57:31.285Z,7.61
2019-02-14T06:58:35.527Z,7.60
2019-02-14T06:59:39.826Z,7.59
2019-02-14T07:00:44.052Z,7.58
2019-02-14T07:01:48.272Z,7.57
2019-02-14T07:02:52.500Z,7.56
2019-02-14T07:03:56.663Z,7.55
2019-02-14T07:05:00.972Z,7.57
2019-02-14T07:06:05.101Z,7.58
2019-02-14T07:07:17.925Z,7.58
2019-02-14T07:08:13.646Z,7.58
2019-02-14T07:09:17.886Z,7.59
2019-02-14T07:10:22.121Z,7.59
2019-02-14T07:11:26.349Z,7.60
2019-02-14T07:12:30.510Z,7.59
2019-02-14T07:13:34.839Z,7.59
2019-02-14T07:14:38.997Z,7.58
2019-02-14T07:15:43.170Z,7.58
2019-02-14T07:16:47.461Z,7.57
2019-02-14T07:17:51.701Z,7.56
2019-02-14T07:18:55.958Z,7.56
2019-02-14T07:20:00.302Z,7.55
2019-02-14T07:21:04.426Z,7.56
2019-02-14T07:22:08.575Z,7.55
2019-02-14T07:23:12.874Z,7.55
2019-02-14T07:24:17.031Z,7.56
2019-02-14T07:25:21.331Z,7.57
2019-02-14T07:26:25.440Z,7.58
2019-02-14T07:27:29.671Z,7.59
2019-02-14T07:28:34.527Z,7.60
2019-02-14T07:29:38.144Z,7.59
2019-02-14T07:30:42.275Z,7.58
2019-02-14T07:31:46.450Z,7.57
2019-02-14T07:32:50.744Z,7.56
2019-02-14T07:33:55.002Z,7.56
2019-02-14T07:34:59.209Z,7.56
2019-02-14T07:36:03.431Z,7.57
2019-02-14T07:37:07.544Z,7.57
2019-02-14T07:38:11.817Z,7.57
2019-02-14T07:39:16.060Z,7.56
2019-02-14T07:40:20.173Z,7.57
2019-02-14T07:41:24.455Z,7.57
2019-02-14T07:42:28.706Z,7.58
2019-02-14T07:43:32.880Z,7.58
2019-02-14T07:44:37.145Z,7.57
2019-02-14T07:45:41.414Z,7.58
2019-02-14T07:46:45.573Z,7.58
2019-02-14T07:47:49.809Z,7.57
2019-02-14T07:48:53.887Z,7.58
2019-02-14T07:49:58.037Z,7.58
2019-02-14T07:51:02.380Z,7.58
2019-02-14T07:52:06.572Z,7.58
2019-02-14T07:53:10.798Z,7.58
2019-02-14T07:54:15.967Z,7.59
2019-02-14T07:55:19.900Z,7.61
2019-02-14T07:56:23.939Z,7.62
2019-02-14T07:57:28.241Z,7.63
2019-02-14T07:58:32.514Z,7.64
2019-02-14T07:59:36.776Z,7.65
2019-02-14T08:00:40.948Z,7.66
2019-02-14T08:01:45.150Z,7.65
2019-02-14T08:02:49.350Z,7.64
2019-02-14T08:03:53.658Z,7.64
2019-02-14T08:04:57.832Z,7.65
2019-02-14T08:06:01.969Z,7.66
2019-02-14T08:07:06.250Z,7.67
2019-02-14T08:08:10.473Z,7.68
2019-02-14T08:09:14.617Z,7.69
2019-02-14T08:10:18.823Z,7.70
2019-02-14T08:11:23.099Z,7.72
2019-02-14T08:12:27.335Z,7.74
2019-02-14T08:13:31.517Z,7.74
2019-02-14T08:14:35.758Z,7.75
2019-02-14T08:15:39.887Z,7.76
2019-02-14T08:16:44.087Z,7.75
2019-02-14T08:17:48.254Z,7.75
2019-02-14T08:18:52.574Z,7.76
2019-02-14T08:19:56.725Z,7.76
2019-02-14T08:21:01.107Z,7.77
2019-02-14T08:22:05.325Z,7.78
2019-02-14T08:23:09.544Z,7.80
2019-02-14T08:24:13.815Z,7.80
2019-02-14T08:25:18.017Z,7.81
2019-02-14T08:26:22.163Z,7.82
2019-02-14T08:27:26.473Z,7.80
2019-02-14T08:28:30.689Z,7.78
2019-02-14T08:29:34.853Z,7.78
2019-02-14T08:30:39.068Z,7.78
2019-02-14T08:31:43.253Z,7.78
2019-02-14T08:32:47.550Z,7.79
2019-02-14T08:33:51.684Z,7.79
2019-02-14T08:34:55.879Z,7.80
2019-02-14T08:36:00.153Z,7.78
2019-02-14T08:37:04.404Z,7.78
2019-02-14T08:38:08.619Z,7.79
2019-02-14T08:39:12.874Z,7.79
2019-02-14T08:40:17.163Z,7.81
2019-02-14T08:41:21.372Z,7.83
2019-02-14T08:42:25.502Z,7.82
2019-02-14T08:43:29.806Z,7.80
2019-02-14T08:44:34.067Z,7.80
2019-02-14T08:45:38.408Z,7.81
2019-02-14T08:46:42.614Z,7.80
2019-02-14T08:47:46.762Z,7.79
2019-02-14T08:48:50.878Z,7.78
2019-02-14T08:49:55.232Z,7.78
2019-02-14T08:50:59.456Z,7.76
2019-02-14T08:52:03.684Z,7.75
2019-02-14T08:53:07.908Z,7.73
2019-02-14T08:54:12.173Z,7.72
2019-02-14T08:55:16.338Z,7.73
2019-02-14T08:56:20.600Z,7.73
2019-02-14T08:57:24.884Z,7.73
2019-02-14T08:58:29.241Z,7.74
2019-02-14T08:59:33.428Z,7.73
2019-02-14T09:00:37.547Z,7.72
2019-02-14T09:01:41.759Z,7.73
2019-02-14T09:02:46.020Z,7.74
2019-02-14T09:03:50.249Z,7.76
2019-02-14T09:04:54.408Z,7.76
2019-02-14T09:05:58.705Z,7.77
2019-02-14T09:07:02.898Z,7.78
2019-02-14T09:08:07.123Z,7.81
2019-02-14T09:09:11.297Z,7.82
2019-02-14T09:10:15.574Z,7.84
2019-02-14T09:11:19.706Z,7.85
2019-02-14T09:12:23.913Z,7.84
2019-02-14T09:13:28.306Z,7.85
2019-02-14T09:14:32.464Z,7.86
2019-02-14T09:15:36.735Z,7.87
2019-02-14T09:16:40.843Z,7.88
2019-02-14T09:17:45.037Z,7.90
2019-02-14T09:18:49.330Z,7.91
2019-02-14T09:19:53.499Z,7.93
2019-02-14T09:20:57.790Z,7.94
2019-02-14T09:22:02.017Z,7.95
2019-02-14T09:23:06.261Z,7.93
2019-02-14T09:24:10.505Z,7.93
2019-02-14T09:25:14.766Z,7.93
2019-02-14T09:26:18.981Z,7.94
2019-02-14T09:27:23.123Z,7.96
2019-02-14T09:28:27.407Z,7.98
2019-02-14T09:29:31.671Z,8.01
2019-02-14T09:30:35.928Z,8.03
2019-02-14T09:31:40.168Z,8.04
2019-02-14T09:32:44.366Z,8.05
2019-02-14T09:33:48.511Z,8.07
2019-02-14T09:34:52.616Z,8.08
2019-02-14T09:35:56.978Z,8.08
2019-02-14T09:37:01.112Z,8.09
2019-02-14T09:38:05.308Z,8.09
2019-02-14T09:39:09.589Z,8.09
2019-02-14T09:40:13.860Z,8.09
2019-02-14T09:41:18.080Z,8.09
2019-02-14T09:42:22.322Z,8.09
2019-02-14T09:43:29.957Z,8.10
2019-02-14T09:44:30.803Z,8.11
2019-02-14T09:45:34.978Z,8.13
2019-02-14T09:46:39.350Z,8.15
2019-02-14T09:47:43.478Z,8.18
2019-02-14T09:48:47.784Z,8.21
2019-02-14T09:49:51.941Z,8.22
2019-02-14T09:50:56.252Z,8.23
2019-02-14T09:52:00.515Z,8.24
2019-02-14T09:53:04.735Z,8.24
2019-02-14T09:54:08.973Z,8.24
2019-02-14T09:55:13.235Z,8.24
2019-02-14T09:56:17.503Z,8.24
2019-02-14T09:57:21.652Z,8.25
2019-02-14T09:58:25.753Z,8.26
2019-02-14T09:59:30.095Z,8.28
2019-02-14T10:00:34.274Z,8.31
2019-02-14T10:01:38.606Z,8.36
2019-02-14T10:02:42.754Z,8.39
2019-02-14T10:03:47.138Z,8.42
2019-02-14T10:04:51.324Z,8.44
2019-02-14T10:05:55.526Z,8.46
2019-02-14T10:06:59.729Z,8.47
2019-02-14T10:08:12.454Z,8.46
2019-02-14T10:09:08.263Z,8.46
2019-02-14T10:10:12.504Z,8.45
2019-02-14T10:11:16.788Z,8.44
2019-02-14T10:12:20.936Z,8.42
2019-02-14T10:13:25.251Z,8.41
2019-02-14T10:14:29.474Z,8.38
2019-02-14T10:15:33.726Z,8.38
2019-02-14T10:16:37.916Z,8.35
2019-02-14T10:17:42.174Z,8.34
2019-02-14T10:18:46.204Z,8.33
2019-02-14T10:19:50.565Z,8.30
2019-02-14T10:20:54.825Z,8.29
2019-02-14T10:22:01.972Z,8.30
2019-02-14T10:23:05.362Z,8.34
2019-02-14T10:24:09.562Z,8.40
2019-02-14T10:25:13.684Z,8.46
2019-02-14T10:26:18.054Z,8.53
2019-02-14T10:27:22.315Z,8.60
2019-02-14T10:28:26.573Z,8.69
2019-02-14T10:29:30.856Z,8.76
2019-02-14T10:30:35.054Z,8.82
2019-02-14T10:31:39.378Z,8.88
2019-02-14T10:32:43.533Z,8.91
2019-02-14T10:33:47.826Z,8.93
2019-02-14T10:34:52.082Z,8.94
2019-02-14T10:35:56.387Z,8.94
2019-02-14T10:37:00.622Z,8.95
2019-02-14T10:38:04.977Z,8.95
2019-02-14T10:39:09.177Z,8.95
2019-02-14T10:40:13.320Z,8.96
2019-02-14T10:41:17.535Z,8.99
2019-02-14T10:42:21.827Z,9.01
2019-02-14T10:43:25.987Z,9.02
2019-02-14T10:44:30.178Z,9.02
2019-02-14T10:45:34.508Z,9.02
2019-02-14T10:46:38.774Z,9.02
2019-02-14T10:47:43.027Z,9.02
2019-02-14T10:48:47.311Z,9.03
2019-02-14T10:49:51.567Z,9.04
2019-02-14T10:50:55.830Z,9.04
2019-02-14T10:52:00.081Z,9.02
2019-02-14T10:53:04.335Z,9.01
2019-02-14T10:54:08.587Z,9.00
2019-02-14T10:55:12.906Z,9.01
2019-02-14T10:56:17.167Z,9.02
2019-02-14T10:57:21.421Z,9.03
2019-02-14T10:58:25.679Z,9.04
2019-02-14T10:59:29.926Z,9.05
2019-02-14T11:00:34.264Z,9.06
2019-02-14T11:01:38.478Z,9.08
2019-02-14T11:02:42.828Z,9.10
2019-02-14T11:03:47.053Z,9.12
2019-02-14T11:04:51.307Z,9.13
2019-02-14T11:05:55.592Z,9.12
2019-02-14T11:06:59.824Z,9.11
2019-02-14T11:08:04.106Z,9.10
2019-02-14T11:09:08.377Z,9.10
2019-02-14T11:10:12.632Z,9.11
2019-02-14T11:11:16.890Z,9.11
2019-02-14T11:12:21.864Z,9.09
2019-02-14T11:13:25.424Z,9.08
2019-02-14T11:14:29.641Z,9.09
2019-02-14T11:15:33.897Z,9.11
2019-02-14T11:16:38.160Z,9.11
2019-02-14T11:17:42.343Z,9.11
2019-02-14T11:18:46.721Z,9.08
2019-02-14T11:19:50.904Z,9.07
2019-02-14T11:20:55.162Z,9.07
2019-02-14T11:21:59.416Z,9.09
2019-02-14T11:23:03.687Z,9.13
2019-02-14T11:24:10.959Z,9.13
2019-02-14T11:25:14.291Z,9.14
2019-02-14T11:26:18.574Z,9.15
2019-02-14T11:27:22.805Z,9.17
2019-02-14T11:28:27.090Z,9.18
2019-02-14T11:29:31.360Z,9.20
2019-02-14T11:30:35.640Z,9.22
2019-02-14T11:31:39.925Z,9.21
2019-02-14T11:32:44.166Z,9.21
2019-02-14T11:33:48.348Z,9.20
2019-02-14T11:34:52.632Z,9.21
2019-02-14T11:35:56.913Z,9.19
2019-02-14T11:37:01.189Z,9.18
2019-02-14T11:38:05.361Z,9.18
2019-02-14T11:39:09.668Z,9.19
2019-02-14T11:40:13.876Z,9.21
2019-02-14T11:41:18.135Z,9.23
2019-02-14T11:42:22.420Z,9.26
2019-02-14T11:43:26.634Z,9.29
2019-02-14T11:44:39.395Z,9.32
2019-02-14T11:45:35.136Z,9.34
2019-02-14T11:46:39.398Z,9.36
2019-02-14T11:47:43.677Z,9.38
2019-02-14T11:48:48.083Z,9.40
2019-02-14T11:49:52.154Z,9.41
2019-02-14T11:50:56.409Z,9.43
2019-02-14T11:52:00.708Z,9.46
2019-02-14T11:53:13.826Z,9.46
2019-02-14T11:54:09.214Z,9.46
2019-02-14T11:55:13.471Z,9.43
2019-02-14T11:56:17.741Z,9.41
2019-02-14T11:57:22.053Z,9.40
2019-02-14T11:58:26.277Z,9.38
2019-02-14T11:59:30.581Z,9.33
2019-02-14T12:00:34.858Z,9.31
2019-02-14T12:01:39.106Z,9.31
2019-02-14T12:02:43.384Z,9.29
2019-02-14T12:03:47.768Z,9.29
2019-02-14T12:04:53.523Z,9.30
2019-02-14T12:05:56.215Z,9.32
2019-02-14T12:07:00.595Z,9.33
2019-02-14T12:08:04.840Z,9.35
2019-02-14T12:09:09.070Z,9.37
2019-02-14T12:10:13.972Z,9.39
2019-02-14T12:11:17.564Z,9.41
2019-02-14T12:12:22.973Z,9.47
2019-02-14T12:13:26.117Z,9.54
2019-02-14T12:14:30.370Z,9.64
2019-02-14T12:15:34.649Z,9.74
2019-02-14T12:16:38.803Z,9.83
2019-02-14T12:17:43.142Z,9.92
2019-02-14T12:18:47.420Z,10.02
2019-02-14T12:19:51.712Z,10.11
2019-02-14T12:20:55.994Z,10.17
2019-02-14T12:22:00.296Z,10.22
2019-02-14T12:23:04.595Z,10.24
2019-02-14T12:24:08.837Z,10.31
2019-02-14T12:25:13.111Z,10.38
2019-02-14T12:26:17.423Z,10.46
2019-02-14T12:27:21.718Z,10.56
2019-02-14T12:28:26.067Z,10.64
2019-02-14T12:29:30.332Z,10.71
2019-02-14T12:30:34.496Z,10.76
2019-02-14T12:31:38.827Z,10.78
2019-02-14T12:32:43.042Z,10.78
2019-02-14T12:33:47.274Z,10.81
2019-02-14T12:34:51.585Z,10.86
2019-02-14T12:35:55.860Z,10.91
2019-02-14T12:37:00.199Z,10.95
2019-02-14T12:38:04.453Z,10.99
2019-02-14T12:39:11.463Z,11.05
2019-02-14T12:40:12.961Z,11.12
2019-02-14T12:41:17.277Z,11.17
2019-02-14T12:42:21.635Z,11.23
2019-02-14T12:43:26.011Z,11.32
2019-02-14T12:44:30.254Z,11.39
2019-02-14T12:45:34.530Z,11.39
2019-02-14T12:46:38.923Z,11.43
2019-02-14T12:47:43.145Z,11.48
2019-02-14T12:48:47.364Z,11.53
2019-02-14T12:49:51.657Z,11.53
2019-02-14T12:50:55.956Z,11.51
2019-02-14T12:52:00.133Z,11.50
2019-02-14T12:53:04.446Z,11.46
2019-02-14T12:54:08.716Z,11.48
2019-02-14T12:55:12.898Z,11.46
2019-02-14T12:56:17.249Z,11.49
2019-02-14T12:57:21.562Z,11.54
2019-02-14T12:58:25.874Z,11.61
2019-02-14T12:59:30.175Z,11.70
2019-02-14T13:00:34.449Z,11.77
2019-02-14T13:01:38.782Z,11.80
2019-02-14T13:02:43.060Z,11.79
2019-02-14T13:03:47.443Z,11.83
2019-02-14T13:04:51.722Z,11.87
2019-02-14T13:05:55.989Z,11.93
2019-02-14T13:07:00.193Z,11.96
2019-02-14T13:08:04.542Z,12.02
2019-02-14T13:09:19.294Z,12.08
2019-02-14T13:10:13.027Z,12.14
2019-02-14T13:11:17.442Z,12.19
2019-02-14T13:12:21.608Z,12.23
2019-02-14T13:13:25.958Z,12.27
2019-02-14T13:14:30.152Z,12.26
2019-02-14T13:15:34.464Z,12.27
2019-02-14T13:16:38.744Z,12.31
2019-02-14T13:17:43.078Z,12.36
2019-02-14T13:18:47.254Z,12.42
2019-02-14T13:19:51.650Z,12.49
2019-02-14T13:20:55.939Z,12.58
2019-02-14T13:22:00.265Z,12.58
2019-02-14T13:23:04.483Z,12.61
2019-02-14T13:24:08.824Z,12.65
2019-02-14T13:25:12.968Z,12.65
2019-02-14T13:26:17.342Z,12.62
2019-02-14T13:27:21.554Z,12.55
2019-02-14T13:28:25.939Z,12.47
2019-02-14T13:29:30.317Z,12.43
2019-02-14T13:30:34.695Z,12.47
2019-02-14T13:31:38.939Z,12.42
2019-02-14T13:32:46.143Z,12.36
2019-02-14T13:33:49.517Z,12.33
2019-02-14T13:34:53.808Z,12.33
2019-02-14T13:35:57.981Z,12.39
2019-02-14T13:37:02.373Z,12.47
2019-02-14T13:38:06.500Z,12.53
2019-02-14T13:39:10.867Z,12.60
2019-02-14T13:40:15.235Z,12.65
2019-02-14T13:41:19.548Z,12.57
2019-02-14T13:42:23.842Z,12.58
2019-02-14T13:43:28.171Z,12.53
2019-02-14T13:44:32.558Z,12.46
2019-02-14T13:45:36.836Z,12.36
2019-02-14T13:46:41.152Z,12.35
2019-02-14T13:47:45.458Z,12.25
2019-02-14T13:48:49.712Z,12.20
2019-02-14T13:49:54.058Z,12.22
2019-02-14T13:50:58.274Z,12.28
2019-02-14T13:52:02.511Z,12.35
2019-02-14T13:53:06.732Z,12.38
2019-02-14T13:54:11.081Z,12.44
2019-02-14T13:55:15.381Z,12.48
2019-02-14T13:56:19.637Z,12.49
2019-02-14T13:57:23.948Z,12.44
2019-02-14T13:58:28.209Z,12.42
2019-02-14T13:59:32.512Z,12.37
2019-02-14T14:00:36.857Z,12.35
2019-02-14T14:01:41.136Z,12.37
2019-02-14T14:02:45.417Z,12.42
2019-02-14T14:03:49.740Z,12.48
2019-02-14T14:04:54.030Z,12.53
2019-02-14T14:05:58.270Z,12.57
2019-02-14T14:07:02.535Z,12.60
2019-02-14T14:08:06.994Z,12.56
2019-02-14T14:09:11.224Z,12.46
2019-02-14T14:10:15.611Z,12.41